sensor_id;sensor_type;location;lat;lon;timestamp;temperature;humidity
47162;DHT22;32921;53.256;8.198;2023-11-21T00:02:25;8.90;99.90
47162;DHT22;32921;53.256;8.198;2023-11-21T00:04:50;8.90;99.90
47162;DHT22;32921;53.256;8.198;2023-11-21T00:07:16;9.00;99.90
47162;DHT22;32921;53.256;8.198;2023-11-21T00:09:42;9.00;99.90
47162;DHT22;32921;53.256;8.198;2023-11-21T00:12:08;9.00;99.90
47162;DHT22;32921;53.256;8.198;2023-11-21T00:14:37;9.00;99.90
47162;DHT22;32921;53.256;8.198;2023-11-21T00:17:04;9.00;99.90
47162;DHT22;32921;53.256;8.198;2023-11-21T00:19:30;9.00;99.90
47162;DHT22;32921;53.256;8.198;2023-11-21T00:21:56;9.10;99.90
47162;DHT22;32921;53.256;8.198;2023-11-21T00:24:23;9.10;99.90
47162;DHT22;32921;53.256;8.198;2023-11-21T00:26:50;9.20;99.90
47162;DHT22;32921;53.256;8.198;2023-11-21T00:29:15;9.20;99.90
47162;DHT22;32921;53.256;8.198;2023-11-21T00:31:43;9.20;99.90
47162;DHT22;32921;53.256;8.198;2023-11-21T00:34:09;9.20;99.90
47162;DHT22;32921;53.256;8.198;2023-11-21T00:36:35;9.20;99.90
47162;DHT22;32921;53.256;8.198;2023-11-21T00:39:00;9.20;99.90
47162;DHT22;32921;53.256;8.198;2023-11-21T00:41:29;9.20;99.90
47162;DHT22;32921;53.256;8.198;2023-11-21T00:43:54;9.20;99.90
47162;DHT22;32921;53.256;8.198;2023-11-21T00:46:20;9.20;99.90
47162;DHT22;32921;53.256;8.198;2023-11-21T00:48:46;9.30;99.90
47162;DHT22;32921;53.256;8.198;2023-11-21T00:51:12;9.50;99.90
47162;DHT22;32921;53.256;8.198;2023-11-21T00:53:37;9.50;99.90
47162;DHT22;32921;53.256;8.198;2023-11-21T00:56:03;9.50;99.90
47162;DHT22;32921;53.256;8.198;2023-11-21T00:58:29;9.40;99.90
47162;DHT22;32921;53.256;8.198;2023-11-21T01:00:55;9.50;99.90
47162;DHT22;32921;53.256;8.198;2023-11-21T01:03:21;9.60;99.90
47162;DHT22;32921;53.256;8.198;2023-11-21T01:05:47;9.60;99.90
47162;DHT22;32921;53.256;8.198;2023-11-21T01:08:14;9.60;99.90
47162;DHT22;32921;53.256;8.198;2023-11-21T01:10:40;9.60;99.90
47162;DHT22;32921;53.256;8.198;2023-11-21T01:13:06;9.60;99.90
47162;DHT22;32921;53.256;8.198;2023-11-21T01:15:32;9.50;99.90
47162;DHT22;32921;53.256;8.198;2023-11-21T01:17:58;9.60;99.90
47162;DHT22;32921;53.256;8.198;2023-11-21T01:20:24;9.60;99.90
47162;DHT22;32921;53.256;8.198;2023-11-21T01:22:49;9.50;99.90
47162;DHT22;32921;53.256;8.198;2023-11-21T01:25:15;9.50;99.90
47162;DHT22;32921;53.256;8.198;2023-11-21T01:27:42;9.50;99.90
47162;DHT22;32921;53.256;8.198;2023-11-21T01:30:08;9.40;99.90
47162;DHT22;32921;53.256;8.198;2023-11-21T01:32:36;9.40;99.90
47162;DHT22;32921;53.256;8.198;2023-11-21T01:35:01;9.40;99.90
47162;DHT22;32921;53.256;8.198;2023-11-21T01:37:27;9.40;99.90
47162;DHT22;32921;53.256;8.198;2023-11-21T01:39:54;9.50;99.90
47162;DHT22;32921;53.256;8.198;2023-11-21T01:42:22;9.40;99.90
47162;DHT22;32921;53.256;8.198;2023-11-21T01:44:48;9.40;99.90
47162;DHT22;32921;53.256;8.198;2023-11-21T01:47:14;9.40;99.90
47162;DHT22;32921;53.256;8.198;2023-11-21T01:49:44;9.50;99.90
47162;DHT22;32921;53.256;8.198;2023-11-21T01:52:10;9.40;99.90
47162;DHT22;32921;53.256;8.198;2023-11-21T01:54:37;9.50;99.90
47162;DHT22;32921;53.256;8.198;2023-11-21T01:57:04;9.50;99.90
47162;DHT22;32921;53.256;8.198;2023-11-21T01:59:38;9.50;99.90
47162;DHT22;32921;53.256;8.198;2023-11-21T02:02:05;9.50;99.90
47162;DHT22;32921;53.256;8.198;2023-11-21T02:04:32;9.40;99.90
47162;DHT22;32921;53.256;8.198;2023-11-21T02:06:58;9.50;99.90
47162;DHT22;32921;53.256;8.198;2023-11-21T02:09:28;9.60;99.90
47162;DHT22;32921;53.256;8.198;2023-11-21T02:11:55;9.70;99.90
47162;DHT22;32921;53.256;8.198;2023-11-21T02:14:21;9.60;99.90
47162;DHT22;32921;53.256;8.198;2023-11-21T02:16:51;9.60;99.90
47162;DHT22;32921;53.256;8.198;2023-11-21T02:19:20;9.60;99.90
47162;DHT22;32921;53.256;8.198;2023-11-21T02:21:49;9.70;99.90
47162;DHT22;32921;53.256;8.198;2023-11-21T02:24:22;9.70;99.90
47162;DHT22;32921;53.256;8.198;2023-11-21T02:26:49;9.60;99.90
47162;DHT22;32921;53.256;8.198;2023-11-21T02:29:19;9.60;99.90
47162;DHT22;32921;53.256;8.198;2023-11-21T02:31:48;9.60;99.90
47162;DHT22;32921;53.256;8.198;2023-11-21T02:34:17;9.60;99.90
47162;DHT22;32921;53.256;8.198;2023-11-21T02:36:44;9.60;99.90
47162;DHT22;32921;53.256;8.198;2023-11-21T02:39:12;9.70;99.90
47162;DHT22;32921;53.256;8.198;2023-11-21T02:41:38;9.70;99.90
47162;DHT22;32921;53.256;8.198;2023-11-21T02:44:05;9.70;99.90
47162;DHT22;32921;53.256;8.198;2023-11-21T02:46:32;9.60;99.90
47162;DHT22;32921;53.256;8.198;2023-11-21T02:48:59;9.70;99.90
47162;DHT22;32921;53.256;8.198;2023-11-21T02:51:25;9.70;99.90
47162;DHT22;32921;53.256;8.198;2023-11-21T02:53:50;9.80;99.90
47162;DHT22;32921;53.256;8.198;2023-11-21T02:56:16;9.80;99.90
47162;DHT22;32921;53.256;8.198;2023-11-21T02:58:43;9.80;99.90
47162;DHT22;32921;53.256;8.198;2023-11-21T03:01:11;9.90;99.90
47162;DHT22;32921;53.256;8.198;2023-11-21T03:03:38;9.90;99.90
47162;DHT22;32921;53.256;8.198;2023-11-21T03:06:06;9.80;99.90
47162;DHT22;32921;53.256;8.198;2023-11-21T03:08:32;9.90;99.90
47162;DHT22;32921;53.256;8.198;2023-11-21T03:10:58;9.90;99.90
47162;DHT22;32921;53.256;8.198;2023-11-21T03:13:23;9.90;99.90
47162;DHT22;32921;53.256;8.198;2023-11-21T03:15:49;9.80;99.90
47162;DHT22;32921;53.256;8.198;2023-11-21T03:18:15;9.80;99.90
47162;DHT22;32921;53.256;8.198;2023-11-21T03:20:40;9.80;99.90
47162;DHT22;32921;53.256;8.198;2023-11-21T03:23:06;9.70;99.90
47162;DHT22;32921;53.256;8.198;2023-11-21T03:25:32;9.70;99.90
47162;DHT22;32921;53.256;8.198;2023-11-21T03:27:58;9.70;99.90
47162;DHT22;32921;53.256;8.198;2023-11-21T03:30:23;9.70;99.90
47162;DHT22;32921;53.256;8.198;2023-11-21T03:32:49;9.70;99.90
47162;DHT22;32921;53.256;8.198;2023-11-21T03:35:14;9.70;99.90
47162;DHT22;32921;53.256;8.198;2023-11-21T03:37:40;9.70;99.90
47162;DHT22;32921;53.256;8.198;2023-11-21T03:40:07;9.60;99.90
47162;DHT22;32921;53.256;8.198;2023-11-21T03:42:34;9.60;99.90
47162;DHT22;32921;53.256;8.198;2023-11-21T03:45:00;9.60;99.90
47162;DHT22;32921;53.256;8.198;2023-11-21T03:47:27;9.50;99.90
47162;DHT22;32921;53.256;8.198;2023-11-21T03:49:53;9.50;99.90
47162;DHT22;32921;53.256;8.198;2023-11-21T03:52:18;9.50;99.90
47162;DHT22;32921;53.256;8.198;2023-11-21T03:54:44;9.50;99.90
47162;DHT22;32921;53.256;8.198;2023-11-21T03:57:10;9.40;99.90
47162;DHT22;32921;53.256;8.198;2023-11-21T03:59:40;9.40;99.90
47162;DHT22;32921;53.256;8.198;2023-11-21T04:02:06;9.30;99.90
47162;DHT22;32921;53.256;8.198;2023-11-21T04:04:33;9.30;99.90
47162;DHT22;32921;53.256;8.198;2023-11-21T04:06:59;9.30;99.90
47162;DHT22;32921;53.256;8.198;2023-11-21T04:09:24;9.40;99.90
47162;DHT22;32921;53.256;8.198;2023-11-21T04:11:51;9.30;99.90
47162;DHT22;32921;53.256;8.198;2023-11-21T04:14:16;9.30;99.90
47162;DHT22;32921;53.256;8.198;2023-11-21T04:16:42;9.30;99.90
47162;DHT22;32921;53.256;8.198;2023-11-21T04:19:08;9.30;99.90
47162;DHT22;32921;53.256;8.198;2023-11-21T04:21:38;9.20;99.90
47162;DHT22;32921;53.256;8.198;2023-11-21T04:24:04;9.20;99.90
47162;DHT22;32921;53.256;8.198;2023-11-21T04:26:30;9.20;99.90
47162;DHT22;32921;53.256;8.198;2023-11-21T04:28:56;9.10;99.90
47162;DHT22;32921;53.256;8.198;2023-11-21T04:31:21;9.20;99.90
47162;DHT22;32921;53.256;8.198;2023-11-21T04:33:47;9.10;99.90
47162;DHT22;32921;53.256;8.198;2023-11-21T04:36:12;9.10;99.90
47162;DHT22;32921;53.256;8.198;2023-11-21T04:38:38;9.00;99.90
47162;DHT22;32921;53.256;8.198;2023-11-21T04:41:04;9.00;99.90
47162;DHT22;32921;53.256;8.198;2023-11-21T04:43:29;9.00;99.90
47162;DHT22;32921;53.256;8.198;2023-11-21T04:45:55;9.00;99.90
47162;DHT22;32921;53.256;8.198;2023-11-21T04:48:21;9.00;99.90
47162;DHT22;32921;53.256;8.198;2023-11-21T04:50:46;8.90;99.90
47162;DHT22;32921;53.256;8.198;2023-11-21T04:53:12;9.00;99.90
47162;DHT22;32921;53.256;8.198;2023-11-21T04:55:40;9.00;99.90
47162;DHT22;32921;53.256;8.198;2023-11-21T04:58:05;9.00;99.90
47162;DHT22;32921;53.256;8.198;2023-11-21T05:00:31;9.00;99.90
47162;DHT22;32921;53.256;8.198;2023-11-21T05:02:57;9.00;99.90
47162;DHT22;32921;53.256;8.198;2023-11-21T05:05:22;8.90;99.90
47162;DHT22;32921;53.256;8.198;2023-11-21T05:07:49;8.90;99.90
47162;DHT22;32921;53.256;8.198;2023-11-21T05:10:15;8.90;99.90
47162;DHT22;32921;53.256;8.198;2023-11-21T05:12:41;9.00;99.90
47162;DHT22;32921;53.256;8.198;2023-11-21T05:15:08;8.90;99.90
47162;DHT22;32921;53.256;8.198;2023-11-21T05:17:35;8.90;99.90
47162;DHT22;32921;53.256;8.198;2023-11-21T05:20:02;8.90;99.90
47162;DHT22;32921;53.256;8.198;2023-11-21T05:22:29;8.90;99.90
47162;DHT22;32921;53.256;8.198;2023-11-21T05:24:55;8.90;99.90
47162;DHT22;32921;53.256;8.198;2023-11-21T05:27:21;8.80;99.90
47162;DHT22;32921;53.256;8.198;2023-11-21T05:29:46;8.90;99.90
47162;DHT22;32921;53.256;8.198;2023-11-21T05:32:12;8.80;99.90
47162;DHT22;32921;53.256;8.198;2023-11-21T05:34:37;8.80;99.90
47162;DHT22;32921;53.256;8.198;2023-11-21T05:37:03;8.80;99.90
47162;DHT22;32921;53.256;8.198;2023-11-21T05:39:30;8.70;99.90
47162;DHT22;32921;53.256;8.198;2023-11-21T05:41:55;8.60;99.90
47162;DHT22;32921;53.256;8.198;2023-11-21T05:44:23;8.60;99.90
47162;DHT22;32921;53.256;8.198;2023-11-21T05:46:50;8.60;99.90
47162;DHT22;32921;53.256;8.198;2023-11-21T05:49:15;8.60;99.90
47162;DHT22;32921;53.256;8.198;2023-11-21T05:51:41;8.60;99.90
47162;DHT22;32921;53.256;8.198;2023-11-21T05:54:07;8.60;99.90
47162;DHT22;32921;53.256;8.198;2023-11-21T05:56:33;8.60;99.90
47162;DHT22;32921;53.256;8.198;2023-11-21T05:58:59;8.50;99.90
47162;DHT22;32921;53.256;8.198;2023-11-21T06:01:25;8.50;99.90
47162;DHT22;32921;53.256;8.198;2023-11-21T06:03:53;8.50;99.90
47162;DHT22;32921;53.256;8.198;2023-11-21T06:06:20;8.50;99.90
47162;DHT22;32921;53.256;8.198;2023-11-21T06:08:48;8.60;99.90
47162;DHT22;32921;53.256;8.198;2023-11-21T06:11:14;8.60;99.90
47162;DHT22;32921;53.256;8.198;2023-11-21T06:13:39;8.60;99.90
47162;DHT22;32921;53.256;8.198;2023-11-21T06:16:05;8.50;99.90
47162;DHT22;32921;53.256;8.198;2023-11-21T06:18:31;8.50;99.90
47162;DHT22;32921;53.256;8.198;2023-11-21T06:20:56;8.50;99.90
47162;DHT22;32921;53.256;8.198;2023-11-21T06:23:22;8.50;99.90
47162;DHT22;32921;53.256;8.198;2023-11-21T06:25:48;8.40;99.90
47162;DHT22;32921;53.256;8.198;2023-11-21T06:28:14;8.40;99.90
47162;DHT22;32921;53.256;8.198;2023-11-21T06:30:43;8.30;99.90
47162;DHT22;32921;53.256;8.198;2023-11-21T06:33:09;8.30;99.90
47162;DHT22;32921;53.256;8.198;2023-11-21T06:35:35;8.20;99.90
47162;DHT22;32921;53.256;8.198;2023-11-21T06:38:01;8.20;99.90
47162;DHT22;32921;53.256;8.198;2023-11-21T06:40:28;8.10;99.90
47162;DHT22;32921;53.256;8.198;2023-11-21T06:42:53;8.10;99.90
47162;DHT22;32921;53.256;8.198;2023-11-21T06:45:19;8.10;99.90
47162;DHT22;32921;53.256;8.198;2023-11-21T06:47:45;8.00;99.90
47162;DHT22;32921;53.256;8.198;2023-11-21T06:50:11;8.00;99.90
47162;DHT22;32921;53.256;8.198;2023-11-21T06:52:37;8.00;99.90
47162;DHT22;32921;53.256;8.198;2023-11-21T06:55:04;7.90;99.90
47162;DHT22;32921;53.256;8.198;2023-11-21T06:57:30;7.90;99.90
47162;DHT22;32921;53.256;8.198;2023-11-21T06:59:56;7.80;99.90
47162;DHT22;32921;53.256;8.198;2023-11-21T07:02:22;7.80;99.90
47162;DHT22;32921;53.256;8.198;2023-11-21T07:04:48;7.70;99.90
47162;DHT22;32921;53.256;8.198;2023-11-21T07:07:14;7.70;99.90
47162;DHT22;32921;53.256;8.198;2023-11-21T07:09:39;7.70;99.90
47162;DHT22;32921;53.256;8.198;2023-11-21T07:12:05;7.70;99.90
47162;DHT22;32921;53.256;8.198;2023-11-21T07:14:33;7.70;99.90
47162;DHT22;32921;53.256;8.198;2023-11-21T07:16:59;7.70;99.90
47162;DHT22;32921;53.256;8.198;2023-11-21T07:19:24;7.70;99.90
47162;DHT22;32921;53.256;8.198;2023-11-21T07:21:50;7.70;99.90
47162;DHT22;32921;53.256;8.198;2023-11-21T07:24:16;7.70;99.90
47162;DHT22;32921;53.256;8.198;2023-11-21T07:26:42;7.70;99.90
47162;DHT22;32921;53.256;8.198;2023-11-21T07:29:08;7.70;99.90
47162;DHT22;32921;53.256;8.198;2023-11-21T07:31:34;7.70;99.90
47162;DHT22;32921;53.256;8.198;2023-11-21T07:34:00;7.70;99.90
47162;DHT22;32921;53.256;8.198;2023-11-21T07:36:26;7.70;99.90
47162;DHT22;32921;53.256;8.198;2023-11-21T07:38:52;7.70;99.90
47162;DHT22;32921;53.256;8.198;2023-11-21T07:41:18;7.70;99.90
47162;DHT22;32921;53.256;8.198;2023-11-21T07:43:45;7.70;99.90
47162;DHT22;32921;53.256;8.198;2023-11-21T07:46:11;7.60;99.90
47162;DHT22;32921;53.256;8.198;2023-11-21T07:48:38;7.60;99.90
47162;DHT22;32921;53.256;8.198;2023-11-21T07:51:04;7.70;99.90
47162;DHT22;32921;53.256;8.198;2023-11-21T07:53:30;7.70;99.90
47162;DHT22;32921;53.256;8.198;2023-11-21T07:55:57;7.80;99.90
47162;DHT22;32921;53.256;8.198;2023-11-21T07:58:23;7.70;99.90
47162;DHT22;32921;53.256;8.198;2023-11-21T08:00:49;7.80;99.90
47162;DHT22;32921;53.256;8.198;2023-11-21T08:03:15;7.80;99.90
47162;DHT22;32921;53.256;8.198;2023-11-21T08:05:41;7.80;99.90
47162;DHT22;32921;53.256;8.198;2023-11-21T08:08:07;7.80;99.90
47162;DHT22;32921;53.256;8.198;2023-11-21T08:10:33;7.90;99.90
47162;DHT22;32921;53.256;8.198;2023-11-21T08:12:59;7.90;99.90
47162;DHT22;32921;53.256;8.198;2023-11-21T08:15:24;8.00;99.90
47162;DHT22;32921;53.256;8.198;2023-11-21T08:17:50;8.10;99.90
47162;DHT22;32921;53.256;8.198;2023-11-21T08:20:16;8.10;99.90
47162;DHT22;32921;53.256;8.198;2023-11-21T08:22:42;8.10;99.90
47162;DHT22;32921;53.256;8.198;2023-11-21T08:25:08;8.10;99.90
47162;DHT22;32921;53.256;8.198;2023-11-21T08:27:34;8.10;99.90
47162;DHT22;32921;53.256;8.198;2023-11-21T08:30:03;8.10;99.90
47162;DHT22;32921;53.256;8.198;2023-11-21T08:32:29;8.20;99.90
47162;DHT22;32921;53.256;8.198;2023-11-21T08:34:57;8.20;99.90
47162;DHT22;32921;53.256;8.198;2023-11-21T08:37:23;8.20;99.90
47162;DHT22;32921;53.256;8.198;2023-11-21T08:39:49;8.30;99.90
47162;DHT22;32921;53.256;8.198;2023-11-21T08:42:15;8.20;99.90
47162;DHT22;32921;53.256;8.198;2023-11-21T08:44:40;8.20;99.90
47162;DHT22;32921;53.256;8.198;2023-11-21T08:47:06;8.20;99.90
47162;DHT22;32921;53.256;8.198;2023-11-21T08:49:32;8.10;99.90
47162;DHT22;32921;53.256;8.198;2023-11-21T08:51:58;8.20;99.90
47162;DHT22;32921;53.256;8.198;2023-11-21T08:54:25;8.30;99.90
47162;DHT22;32921;53.256;8.198;2023-11-21T08:56:52;8.30;99.90
47162;DHT22;32921;53.256;8.198;2023-11-21T08:59:18;8.30;99.90
47162;DHT22;32921;53.256;8.198;2023-11-21T09:01:45;8.30;99.90
47162;DHT22;32921;53.256;8.198;2023-11-21T09:04:12;8.30;99.90
47162;DHT22;32921;53.256;8.198;2023-11-21T09:06:38;8.30;99.90
47162;DHT22;32921;53.256;8.198;2023-11-21T09:09:05;8.30;99.90
47162;DHT22;32921;53.256;8.198;2023-11-21T09:11:34;8.30;99.90
47162;DHT22;32921;53.256;8.198;2023-11-21T09:14:01;8.30;99.90
47162;DHT22;32921;53.256;8.198;2023-11-21T09:16:26;8.30;99.90
47162;DHT22;32921;53.256;8.198;2023-11-21T09:18:52;8.30;99.90
47162;DHT22;32921;53.256;8.198;2023-11-21T09:21:18;8.40;99.90
47162;DHT22;32921;53.256;8.198;2023-11-21T09:23:47;8.30;99.90
47162;DHT22;32921;53.256;8.198;2023-11-21T09:26:13;8.40;99.90
47162;DHT22;32921;53.256;8.198;2023-11-21T09:28:41;8.60;99.90
47162;DHT22;32921;53.256;8.198;2023-11-21T09:31:11;8.60;99.90
47162;DHT22;32921;53.256;8.198;2023-11-21T09:33:37;8.60;99.90
47162;DHT22;32921;53.256;8.198;2023-11-21T09:36:04;8.60;99.90
47162;DHT22;32921;53.256;8.198;2023-11-21T09:38:30;8.70;99.90
47162;DHT22;32921;53.256;8.198;2023-11-21T09:40:56;8.80;99.90
47162;DHT22;32921;53.256;8.198;2023-11-21T09:43:25;8.90;99.90
47162;DHT22;32921;53.256;8.198;2023-11-21T09:45:58;9.00;99.90
47162;DHT22;32921;53.256;8.198;2023-11-21T09:48:26;9.20;99.90
47162;DHT22;32921;53.256;8.198;2023-11-21T09:50:53;9.30;99.90
47162;DHT22;32921;53.256;8.198;2023-11-21T09:53:20;9.40;99.90
47162;DHT22;32921;53.256;8.198;2023-11-21T09:55:53;9.50;99.90
47162;DHT22;32921;53.256;8.198;2023-11-21T09:58:19;9.60;99.90
47162;DHT22;32921;53.256;8.198;2023-11-21T10:00:48;9.80;99.90
47162;DHT22;32921;53.256;8.198;2023-11-21T10:03:14;9.70;99.90
47162;DHT22;32921;53.256;8.198;2023-11-21T10:05:43;9.50;99.90
47162;DHT22;32921;53.256;8.198;2023-11-21T10:08:12;9.30;99.90
47162;DHT22;32921;53.256;8.198;2023-11-21T10:10:43;9.20;99.90
47162;DHT22;32921;53.256;8.198;2023-11-21T10:13:12;9.10;99.90
47162;DHT22;32921;53.256;8.198;2023-11-21T10:15:38;9.10;99.90
47162;DHT22;32921;53.256;8.198;2023-11-21T10:18:04;9.20;99.90
47162;DHT22;32921;53.256;8.198;2023-11-21T10:20:32;9.10;99.90
47162;DHT22;32921;53.256;8.198;2023-11-21T10:23:00;9.10;99.90
47162;DHT22;32921;53.256;8.198;2023-11-21T10:25:27;9.20;99.90
47162;DHT22;32921;53.256;8.198;2023-11-21T10:27:58;9.20;99.90
47162;DHT22;32921;53.256;8.198;2023-11-21T10:30:31;9.30;99.90
47162;DHT22;32921;53.256;8.198;2023-11-21T10:33:01;9.30;99.90
47162;DHT22;32921;53.256;8.198;2023-11-21T10:35:39;9.40;99.90
47162;DHT22;32921;53.256;8.198;2023-11-21T10:38:05;9.40;99.90
47162;DHT22;32921;53.256;8.198;2023-11-21T10:40:31;9.50;99.90
47162;DHT22;32921;53.256;8.198;2023-11-21T10:43:06;9.50;99.90
47162;DHT22;32921;53.256;8.198;2023-11-21T10:45:34;9.40;99.90
47162;DHT22;32921;53.256;8.198;2023-11-21T10:48:00;9.40;99.90
47162;DHT22;32921;53.256;8.198;2023-11-21T10:50:25;9.50;99.90
47162;DHT22;32921;53.256;8.198;2023-11-21T10:52:51;9.50;99.90
47162;DHT22;32921;53.256;8.198;2023-11-21T10:55:18;9.50;99.90
47162;DHT22;32921;53.256;8.198;2023-11-21T10:57:49;9.20;99.90
47162;DHT22;32921;53.256;8.198;2023-11-21T11:00:16;9.20;99.90
47162;DHT22;32921;53.256;8.198;2023-11-21T11:02:48;9.20;99.90
47162;DHT22;32921;53.256;8.198;2023-11-21T11:05:16;9.10;99.90
47162;DHT22;32921;53.256;8.198;2023-11-21T11:07:44;8.90;99.90
47162;DHT22;32921;53.256;8.198;2023-11-21T11:10:13;8.90;99.90
47162;DHT22;32921;53.256;8.198;2023-11-21T11:12:40;8.90;99.90
47162;DHT22;32921;53.256;8.198;2023-11-21T11:15:07;8.90;99.90
47162;DHT22;32921;53.256;8.198;2023-11-21T11:17:36;8.90;99.90
47162;DHT22;32921;53.256;8.198;2023-11-21T11:20:04;8.90;99.90
47162;DHT22;32921;53.256;8.198;2023-11-21T11:22:41;8.80;99.90
47162;DHT22;32921;53.256;8.198;2023-11-21T11:28:07;8.80;99.90
47162;DHT22;32921;53.256;8.198;2023-11-21T11:31:04;8.80;99.90
47162;DHT22;32921;53.256;8.198;2023-11-21T11:33:46;8.90;99.90
47162;DHT22;32921;53.256;8.198;2023-11-21T11:36:24;8.90;99.90
47162;DHT22;32921;53.256;8.198;2023-11-21T11:38:51;9.00;99.90
47162;DHT22;32921;53.256;8.198;2023-11-21T11:41:30;9.00;99.90
47162;DHT22;32921;53.256;8.198;2023-11-21T11:43:58;9.00;99.90
47162;DHT22;32921;53.256;8.198;2023-11-21T11:46:53;8.90;99.90
47162;DHT22;32921;53.256;8.198;2023-11-21T11:49:27;8.70;99.90
47162;DHT22;32921;53.256;8.198;2023-11-21T11:54:56;8.80;99.90
47162;DHT22;32921;53.256;8.198;2023-11-21T11:57:24;8.70;99.90
47162;DHT22;32921;53.256;8.198;2023-11-21T12:02:41;8.50;99.90
47162;DHT22;32921;53.256;8.198;2023-11-21T12:05:11;8.50;99.90
47162;DHT22;32921;53.256;8.198;2023-11-21T12:07:52;8.40;99.90
47162;DHT22;32921;53.256;8.198;2023-11-21T12:10:20;8.40;99.90
47162;DHT22;32921;53.256;8.198;2023-11-21T12:12:54;8.50;99.90
47162;DHT22;32921;53.256;8.198;2023-11-21T12:15:20;8.50;99.90
47162;DHT22;32921;53.256;8.198;2023-11-21T12:17:47;8.60;99.90
47162;DHT22;32921;53.256;8.198;2023-11-21T12:20:13;8.70;99.90
47162;DHT22;32921;53.256;8.198;2023-11-21T12:22:49;8.70;99.90
47162;DHT22;32921;53.256;8.198;2023-11-21T12:25:16;8.80;99.90
47162;DHT22;32921;53.256;8.198;2023-11-21T12:27:47;8.90;99.90
47162;DHT22;32921;53.256;8.198;2023-11-21T12:30:15;8.90;99.90
47162;DHT22;32921;53.256;8.198;2023-11-21T12:32:43;9.00;99.90
47162;DHT22;32921;53.256;8.198;2023-11-21T12:35:10;9.00;99.90
47162;DHT22;32921;53.256;8.198;2023-11-21T12:37:39;9.00;99.90
47162;DHT22;32921;53.256;8.198;2023-11-21T12:40:06;9.00;99.90
47162;DHT22;32921;53.256;8.198;2023-11-21T12:42:33;9.00;99.90
47162;DHT22;32921;53.256;8.198;2023-11-21T12:45:29;9.10;99.90
47162;DHT22;32921;53.256;8.198;2023-11-21T12:48:00;9.10;99.90
47162;DHT22;32921;53.256;8.198;2023-11-21T12:50:29;9.10;99.90
47162;DHT22;32921;53.256;8.198;2023-11-21T12:53:08;9.10;99.90
47162;DHT22;32921;53.256;8.198;2023-11-21T12:55:35;9.00;99.90
47162;DHT22;32921;53.256;8.198;2023-11-21T12:58:03;9.00;99.90
47162;DHT22;32921;53.256;8.198;2023-11-21T13:00:40;9.00;99.90
47162;DHT22;32921;53.256;8.198;2023-11-21T13:03:09;8.90;99.90
47162;DHT22;32921;53.256;8.198;2023-11-21T13:05:38;9.00;99.90
47162;DHT22;32921;53.256;8.198;2023-11-21T13:08:06;8.90;99.90
47162;DHT22;32921;53.256;8.198;2023-11-21T13:10:41;8.90;99.90
47162;DHT22;32921;53.256;8.198;2023-11-21T13:13:09;8.90;99.90
47162;DHT22;32921;53.256;8.198;2023-11-21T13:15:39;8.80;99.90
47162;DHT22;32921;53.256;8.198;2023-11-21T13:18:06;8.80;99.90
47162;DHT22;32921;53.256;8.198;2023-11-21T13:20:32;8.70;99.90
47162;DHT22;32921;53.256;8.198;2023-11-21T13:22:58;8.80;99.90
47162;DHT22;32921;53.256;8.198;2023-11-21T13:25:26;8.80;99.90
47162;DHT22;32921;53.256;8.198;2023-11-21T13:27:57;8.80;99.90
47162;DHT22;32921;53.256;8.198;2023-11-21T13:30:25;8.90;99.90
47162;DHT22;32921;53.256;8.198;2023-11-21T13:33:08;8.90;99.90
47162;DHT22;32921;53.256;8.198;2023-11-21T13:35:35;9.00;99.90
47162;DHT22;32921;53.256;8.198;2023-11-21T13:38:14;9.00;99.90
47162;DHT22;32921;53.256;8.198;2023-11-21T13:40:47;9.00;99.90
47162;DHT22;32921;53.256;8.198;2023-11-21T13:43:17;9.10;99.90
47162;DHT22;32921;53.256;8.198;2023-11-21T13:45:44;9.10;99.90
47162;DHT22;32921;53.256;8.198;2023-11-21T13:48:12;9.10;99.90
47162;DHT22;32921;53.256;8.198;2023-11-21T13:50:54;9.10;99.90
47162;DHT22;32921;53.256;8.198;2023-11-21T13:53:34;9.00;99.90
47162;DHT22;32921;53.256;8.198;2023-11-21T13:56:02;8.90;99.90
47162;DHT22;32921;53.256;8.198;2023-11-21T13:58:28;8.90;99.90
47162;DHT22;32921;53.256;8.198;2023-11-21T14:01:10;8.90;99.90
47162;DHT22;32921;53.256;8.198;2023-11-21T14:03:50;8.90;99.90
47162;DHT22;32921;53.256;8.198;2023-11-21T14:06:22;8.90;99.90
47162;DHT22;32921;53.256;8.198;2023-11-21T14:08:52;8.90;99.90
47162;DHT22;32921;53.256;8.198;2023-11-21T14:11:22;8.90;99.90
47162;DHT22;32921;53.256;8.198;2023-11-21T14:13:47;8.90;99.90
47162;DHT22;32921;53.256;8.198;2023-11-21T14:16:14;8.80;99.90
47162;DHT22;32921;53.256;8.198;2023-11-21T14:18:42;8.70;99.90
47162;DHT22;32921;53.256;8.198;2023-11-21T14:21:18;8.60;99.90
47162;DHT22;32921;53.256;8.198;2023-11-21T14:23:44;8.60;99.90
47162;DHT22;32921;53.256;8.198;2023-11-21T14:26:11;8.60;99.90
47162;DHT22;32921;53.256;8.198;2023-11-21T14:28:39;8.70;99.90
47162;DHT22;32921;53.256;8.198;2023-11-21T14:31:05;8.60;99.90
47162;DHT22;32921;53.256;8.198;2023-11-21T14:33:30;8.50;99.90
47162;DHT22;32921;53.256;8.198;2023-11-21T14:35:56;8.40;99.90
47162;DHT22;32921;53.256;8.198;2023-11-21T14:38:23;8.30;99.90
47162;DHT22;32921;53.256;8.198;2023-11-21T14:40:48;8.20;99.90
47162;DHT22;32921;53.256;8.198;2023-11-21T14:43:14;8.00;99.90
47162;DHT22;32921;53.256;8.198;2023-11-21T14:45:41;7.90;99.90
47162;DHT22;32921;53.256;8.198;2023-11-21T14:48:06;7.90;99.90
47162;DHT22;32921;53.256;8.198;2023-11-21T14:50:41;7.80;99.90
47162;DHT22;32921;53.256;8.198;2023-11-21T14:53:10;7.70;99.90
47162;DHT22;32921;53.256;8.198;2023-11-21T14:55:38;7.70;99.90
47162;DHT22;32921;53.256;8.198;2023-11-21T14:58:17;7.70;99.90
47162;DHT22;32921;53.256;8.198;2023-11-21T15:00:55;7.70;99.90
47162;DHT22;32921;53.256;8.198;2023-11-21T15:03:25;7.70;99.90
47162;DHT22;32921;53.256;8.198;2023-11-21T15:05:57;7.70;99.90
47162;DHT22;32921;53.256;8.198;2023-11-21T15:08:23;7.70;99.90
47162;DHT22;32921;53.256;8.198;2023-11-21T15:10:57;7.70;99.90
47162;DHT22;32921;53.256;8.198;2023-11-21T15:13:23;7.80;99.90
47162;DHT22;32921;53.256;8.198;2023-11-21T15:15:50;7.80;99.90
47162;DHT22;32921;53.256;8.198;2023-11-21T15:18:16;7.60;99.90
47162;DHT22;32921;53.256;8.198;2023-11-21T15:20:41;7.60;99.90
47162;DHT22;32921;53.256;8.198;2023-11-21T15:23:08;7.60;99.90
47162;DHT22;32921;53.256;8.198;2023-11-21T15:25:34;7.60;99.90
47162;DHT22;32921;53.256;8.198;2023-11-21T15:28:00;7.60;99.90
47162;DHT22;32921;53.256;8.198;2023-11-21T15:30:26;7.50;99.90
47162;DHT22;32921;53.256;8.198;2023-11-21T15:32:52;7.50;99.90
47162;DHT22;32921;53.256;8.198;2023-11-21T15:35:20;7.40;99.90
47162;DHT22;32921;53.256;8.198;2023-11-21T15:37:46;7.30;99.90
47162;DHT22;32921;53.256;8.198;2023-11-21T15:40:12;7.30;99.90
47162;DHT22;32921;53.256;8.198;2023-11-21T15:42:40;7.30;99.90
47162;DHT22;32921;53.256;8.198;2023-11-21T15:45:06;7.30;99.90
47162;DHT22;32921;53.256;8.198;2023-11-21T15:47:33;7.40;99.90
47162;DHT22;32921;53.256;8.198;2023-11-21T15:49:59;7.40;99.90
47162;DHT22;32921;53.256;8.198;2023-11-21T15:52:29;7.30;99.90
47162;DHT22;32921;53.256;8.198;2023-11-21T15:54:54;7.30;99.90
47162;DHT22;32921;53.256;8.198;2023-11-21T15:57:20;7.30;99.90